createdAt,value
2023-01-25T00:00:50.785Z,8.07
2023-01-25T00:03:18.517Z,9.03
2023-01-25T00:05:46.020Z,8.10
2023-01-25T00:08:13.496Z,8.23
2023-01-25T00:10:42.295Z,8.90
2023-01-25T00:13:09.789Z,8.27
2023-01-25T00:15:37.299Z,8.03
2023-01-25T00:18:05.042Z,8.10
2023-01-25T00:20:32.499Z,8.87
2023-01-25T00:22:59.993Z,8.67
2023-01-25T00:25:27.934Z,9.03
2023-01-25T00:27:57.152Z,8.73
2023-01-25T00:30:24.824Z,8.70
2023-01-25T00:32:59.989Z,7.90
2023-01-25T00:35:32.427Z,10.07
2023-01-25T00:38:03.038Z,8.43
2023-01-25T00:40:30.523Z,8.20
2023-01-25T00:43:01.632Z,7.50
2023-01-25T00:45:30.517Z,7.00
2023-01-25T00:47:58.553Z,7.53
2023-01-25T00:50:26.025Z,7.97
2023-01-25T00:52:53.488Z,7.80
2023-01-25T00:55:21.044Z,8.80
2023-01-25T00:57:49.775Z,8.43
2023-01-25T01:00:19.268Z,8.70
2023-01-25T01:02:47.621Z,8.60
2023-01-25T01:05:15.770Z,10.03
2023-01-25T01:07:43.768Z,8.63
2023-01-25T01:10:13.305Z,9.87
2023-01-25T01:12:40.797Z,8.60
2023-01-25T01:15:09.907Z,8.37
2023-01-25T01:17:39.352Z,9.53
2023-01-25T01:20:08.059Z,8.43
2023-01-25T01:22:35.554Z,8.30
2023-01-25T01:25:03.092Z,9.63
2023-01-25T01:27:30.578Z,8.70
2023-01-25T01:29:58.237Z,7.70
2023-01-25T01:32:25.905Z,9.07
2023-01-25T01:34:55.357Z,8.00
2023-01-25T01:37:23.296Z,8.60
2023-01-25T01:39:52.735Z,10.60
2023-01-25T01:42:20.225Z,7.57
2023-01-25T01:44:50.552Z,9.10
2023-01-25T01:47:25.283Z,8.23
2023-01-25T01:50:02.653Z,8.63
2023-01-25T01:52:37.614Z,8.60
2023-01-25T01:55:09.983Z,7.67
2023-01-25T01:57:44.024Z,8.50
2023-01-25T02:00:17.564Z,8.30
2023-01-25T02:02:47.407Z,7.93
2023-01-25T02:05:22.726Z,9.10
2023-01-25T02:07:53.142Z,9.10
2023-01-25T02:10:21.824Z,8.53
2023-01-25T02:12:50.590Z,8.17
2023-01-25T02:15:18.054Z,8.50
2023-01-25T02:17:45.639Z,8.03
2023-01-25T02:20:25.148Z,10.10
2023-01-25T02:23:00.563Z,8.50
2023-01-25T02:25:29.740Z,7.83
2023-01-25T02:28:02.024Z,9.07
2023-01-25T02:30:29.622Z,8.33
2023-01-25T02:32:57.098Z,7.60
2023-01-25T02:35:37.147Z,8.60
2023-01-25T02:38:05.759Z,8.60
2023-01-25T02:40:41.923Z,9.40
2023-01-25T02:43:09.472Z,9.80
2023-01-25T02:45:37.064Z,9.87
2023-01-25T02:48:04.998Z,8.43
2023-01-25T02:50:32.512Z,7.70
2023-01-25T02:53:00.034Z,9.33
2023-01-25T02:55:28.043Z,9.63
2023-01-25T02:57:56.849Z,9.47
2023-01-25T03:00:24.515Z,8.63
2023-01-25T03:02:52.031Z,8.43
2023-01-25T03:05:20.038Z,10.17
2023-01-25T03:07:48.295Z,10.03
2023-01-25T03:10:16.327Z,10.07
2023-01-25T03:12:44.131Z,9.03
2023-01-25T03:15:13.110Z,8.57
2023-01-25T03:17:41.458Z,10.43
2023-01-25T03:20:12.179Z,8.77
2023-01-25T03:22:40.965Z,9.17
2023-01-25T03:25:10.055Z,9.00
2023-01-25T03:27:41.418Z,9.37
2023-01-25T03:30:13.486Z,10.70
2023-01-25T03:32:41.157Z,10.07
2023-01-25T03:35:12.069Z,10.33
2023-01-25T03:37:39.590Z,8.33
2023-01-25T03:40:09.103Z,8.13
2023-01-25T03:42:37.237Z,9.37
2023-01-25T03:45:05.443Z,7.97
2023-01-25T03:47:39.068Z,8.93
2023-01-25T03:50:08.256Z,9.57
2023-01-25T03:52:39.071Z,9.23
2023-01-25T03:55:09.227Z,8.70
2023-01-25T03:57:40.888Z,7.60
2023-01-25T04:00:12.718Z,8.63
2023-01-25T04:02:44.195Z,9.73
2023-01-25T04:05:15.357Z,8.03
2023-01-25T04:07:43.293Z,7.27
2023-01-25T04:10:11.940Z,6.10
2023-01-25T04:12:43.694Z,7.90
2023-01-25T04:15:11.808Z,6.87
2023-01-25T04:17:40.620Z,7.93
2023-01-25T04:20:24.144Z,7.10
2023-01-25T04:22:52.273Z,8.00
2023-01-25T04:25:21.406Z,7.77
2023-01-25T04:27:53.368Z,7.70
2023-01-25T04:30:21.476Z,7.13
2023-01-25T04:32:50.232Z,6.67
2023-01-25T04:35:32.750Z,6.93
2023-01-25T04:38:02.207Z,6.90
2023-01-25T04:40:39.202Z,6.40
2023-01-25T04:43:07.232Z,5.70
2023-01-25T04:45:36.450Z,7.07
2023-01-25T04:48:12.676Z,6.70
2023-01-25T04:50:48.392Z,5.43
2023-01-25T04:53:17.061Z,5.53
2023-01-25T04:55:47.088Z,5.97
2023-01-25T04:58:15.738Z,7.53
2023-01-25T05:00:44.401Z,5.67
2023-01-25T05:03:12.575Z,6.63
2023-01-25T05:05:40.057Z,5.90
2023-01-25T05:08:13.479Z,6.67
2023-01-25T05:10:41.170Z,6.10
2023-01-25T05:13:27.313Z,6.20
2023-01-25T05:16:09.034Z,5.73
2023-01-25T05:18:48.025Z,5.90
2023-01-25T05:21:39.142Z,5.87
2023-01-25T05:24:09.381Z,6.40
2023-01-25T05:26:54.709Z,6.50
2023-01-25T05:29:22.699Z,5.87
2023-01-25T05:31:59.950Z,6.83
2023-01-25T05:34:28.058Z,4.87
2023-01-25T05:36:55.574Z,6.10
2023-01-25T05:39:24.654Z,6.60
2023-01-25T05:41:53.659Z,4.47
2023-01-25T05:44:21.366Z,4.70
2023-01-25T05:46:51.599Z,4.63
2023-01-25T05:49:19.582Z,4.80
2023-01-25T05:51:47.828Z,3.90
2023-01-25T05:54:18.342Z,4.20
2023-01-25T05:56:54.161Z,6.00
2023-01-25T05:59:21.767Z,4.53
2023-01-25T06:01:49.446Z,5.10
2023-01-25T06:04:18.170Z,4.70
2023-01-25T06:06:46.289Z,4.67
2023-01-25T06:09:14.642Z,4.90
2023-01-25T06:11:44.389Z,4.47
2023-01-25T06:14:13.378Z,5.23
2023-01-25T06:16:41.274Z,4.50
2023-01-25T06:19:31.403Z,4.70
2023-01-25T06:22:10.866Z,4.70
2023-01-25T06:24:38.375Z,3.17
2023-01-25T06:27:05.925Z,4.53
2023-01-25T06:29:34.707Z,4.73
2023-01-25T06:32:02.210Z,4.23
2023-01-25T06:34:29.693Z,3.83
2023-01-25T06:36:57.216Z,5.10
2023-01-25T06:39:24.700Z,4.27
2023-01-25T06:41:52.393Z,5.93
2023-01-25T06:44:19.889Z,4.57
2023-01-25T06:46:48.757Z,4.90
2023-01-25T06:49:16.278Z,4.50
2023-01-25T06:51:43.721Z,4.87
2023-01-25T06:54:11.201Z,3.93
2023-01-25T06:56:38.638Z,4.60
2023-01-25T06:59:06.124Z,4.50
2023-01-25T07:01:33.670Z,4.60
2023-01-25T07:04:02.719Z,4.60
2023-01-25T07:06:33.364Z,4.73
2023-01-25T07:09:04.201Z,4.43
2023-01-25T07:11:31.895Z,4.70
2023-01-25T07:14:00.261Z,5.10
2023-01-25T07:16:27.917Z,4.67
2023-01-25T07:18:55.790Z,5.60
2023-01-25T07:21:25.386Z,6.13
2023-01-25T07:23:53.373Z,6.20
2023-01-25T07:26:23.480Z,4.60
2023-01-25T07:28:52.075Z,4.27
2023-01-25T07:31:20.653Z,6.30
2023-01-25T07:33:52.509Z,4.37
2023-01-25T07:36:22.223Z,5.67
2023-01-25T07:38:54.075Z,5.23
2023-01-25T07:41:21.561Z,4.90
2023-01-25T07:43:49.085Z,5.57
2023-01-25T07:46:29.302Z,7.80
2023-01-25T07:48:58.768Z,6.00
2023-01-25T07:51:27.807Z,6.60
2023-01-25T07:53:58.659Z,7.60
2023-01-25T07:56:28.011Z,9.90
2023-01-25T07:58:56.674Z,8.20
2023-01-25T08:01:26.664Z,6.03
2023-01-25T08:03:56.071Z,6.83
2023-01-25T08:06:27.167Z,6.73
2023-01-25T08:08:55.146Z,7.20
2023-01-25T08:11:26.396Z,6.10
2023-01-25T08:13:53.895Z,5.93
2023-01-25T08:16:23.904Z,8.63
2023-01-25T08:18:53.129Z,8.00
2023-01-25T08:21:20.625Z,7.17
2023-01-25T08:23:48.185Z,7.23
2023-01-25T08:26:16.785Z,6.70
2023-01-25T08:28:45.751Z,6.67
2023-01-25T08:31:16.105Z,7.20
2023-01-25T08:33:46.013Z,7.07
2023-01-25T08:36:13.998Z,10.70
2023-01-25T08:38:41.522Z,7.70
2023-01-25T08:41:11.326Z,7.07
2023-01-25T08:43:39.207Z,8.37
2023-01-25T08:46:08.332Z,6.77
2023-01-25T08:48:36.193Z,7.47
2023-01-25T08:51:04.059Z,8.30
2023-01-25T08:53:33.239Z,6.90
2023-01-25T08:56:05.105Z,7.73
2023-01-25T08:58:33.040Z,8.83
2023-01-25T09:01:05.110Z,6.77
2023-01-25T09:03:36.229Z,6.47
2023-01-25T09:06:03.948Z,7.20
2023-01-25T09:08:31.908Z,6.80
2023-01-25T09:11:02.409Z,7.80
2023-01-25T09:13:29.973Z,8.97
2023-01-25T09:16:01.690Z,9.67
2023-01-25T09:18:29.996Z,13.60
2023-01-25T09:20:58.908Z,9.07
2023-01-25T09:23:26.864Z,9.50
2023-01-25T09:25:58.432Z,7.23
2023-01-25T09:28:25.997Z,7.57
2023-01-25T09:31:18.696Z,8.63
2023-01-25T09:34:08.626Z,8.20
2023-01-25T09:36:37.729Z,8.67
2023-01-25T09:39:05.606Z,7.97
2023-01-25T09:41:54.804Z,6.53
2023-01-25T09:44:39.867Z,8.03
2023-01-25T09:47:19.186Z,8.50
2023-01-25T09:50:07.579Z,7.50
2023-01-25T09:53:11.795Z,8.00
2023-01-25T09:55:40.362Z,7.97
2023-01-25T09:58:13.822Z,8.47
2023-01-25T10:00:45.163Z,9.03
2023-01-25T10:03:19.559Z,7.40
2023-01-25T10:05:49.875Z,8.17
2023-01-25T10:08:27.948Z,7.80
2023-01-25T10:11:01.997Z,8.10
2023-01-25T10:13:31.784Z,7.87
2023-01-25T10:16:06.457Z,8.50
2023-01-25T10:18:41.143Z,7.73
2023-01-25T10:21:15.059Z,7.90
2023-01-25T10:24:13.414Z,7.50
2023-01-25T10:26:45.136Z,6.97
2023-01-25T10:29:16.406Z,6.97
2023-01-25T10:31:49.111Z,8.60
2023-01-25T10:34:21.171Z,9.10
2023-01-25T10:36:51.749Z,7.57
2023-01-25T10:39:20.783Z,7.33
2023-01-25T10:41:52.310Z,9.10
2023-01-25T10:44:23.826Z,8.60
2023-01-25T10:46:57.620Z,8.57
2023-01-25T10:49:30.019Z,8.90
2023-01-25T10:51:57.640Z,7.87
2023-01-25T10:54:27.801Z,7.93
2023-01-25T10:56:58.030Z,7.30
2023-01-25T10:59:29.197Z,7.80
2023-01-25T11:02:02.669Z,9.40
2023-01-25T11:04:33.071Z,8.10
2023-01-25T11:07:02.591Z,7.27
2023-01-25T11:09:37.831Z,6.97
2023-01-25T11:12:16.343Z,6.00
2023-01-25T11:14:44.200Z,7.37
2023-01-25T11:17:24.761Z,7.57
2023-01-25T11:20:08.666Z,6.97
2023-01-25T11:22:36.293Z,7.73
2023-01-25T11:25:30.162Z,6.40
2023-01-25T11:28:18.347Z,8.00
2023-01-25T11:30:46.780Z,8.43
2023-01-25T11:33:17.734Z,7.30
2023-01-25T11:36:02.187Z,10.40
2023-01-25T11:38:30.202Z,8.00
2023-01-25T11:41:11.133Z,10.20
2023-01-25T11:43:58.655Z,9.13
2023-01-25T11:46:50.383Z,7.47
2023-01-25T11:49:32.018Z,9.00
2023-01-25T11:52:13.227Z,7.43
2023-01-25T11:54:50.122Z,10.03
2023-01-25T11:57:34.506Z,7.23
2023-01-25T12:00:15.330Z,8.20
2023-01-25T12:03:05.726Z,8.20
2023-01-25T12:05:44.410Z,9.07
2023-01-25T12:08:24.266Z,7.77
2023-01-25T12:11:00.323Z,8.10
2023-01-25T12:13:41.278Z,8.80
2023-01-25T12:16:25.183Z,7.47
2023-01-25T12:19:11.272Z,10.30
2023-01-25T12:21:53.479Z,8.23
2023-01-25T12:24:38.899Z,8.33
2023-01-25T12:27:19.426Z,6.87
2023-01-25T12:29:55.612Z,7.33
2023-01-25T12:32:28.390Z,8.23
2023-01-25T12:35:11.396Z,8.93
2023-01-25T12:37:43.350Z,10.30
2023-01-25T12:40:16.415Z,6.80
2023-01-25T12:42:48.411Z,7.17
2023-01-25T12:45:21.799Z,7.40
2023-01-25T12:47:54.815Z,7.67
2023-01-25T12:50:28.591Z,12.90
2023-01-25T12:53:02.735Z,9.40
2023-01-25T12:55:30.750Z,11.90
2023-01-25T12:58:05.588Z,9.13
2023-01-25T13:00:43.350Z,11.80
2023-01-25T13:03:26.577Z,10.50
2023-01-25T13:05:59.630Z,9.03
2023-01-25T13:08:36.475Z,8.70
2023-01-25T13:11:16.292Z,8.83
2023-01-25T13:13:44.076Z,7.90
2023-01-25T13:16:43.074Z,9.23
2023-01-25T13:19:20.830Z,9.17
2023-01-25T13:21:49.875Z,7.60
2023-01-25T13:24:25.314Z,8.67
2023-01-25T13:27:04.814Z,7.97
2023-01-25T13:29:56.744Z,9.27
2023-01-25T13:33:00.727Z,7.20
2023-01-25T13:35:40.849Z,7.90
2023-01-25T13:38:30.779Z,9.30
2023-01-25T13:41:17.885Z,9.07
2023-01-25T13:43:49.018Z,8.67
2023-01-25T13:46:23.178Z,8.20
2023-01-25T13:48:59.068Z,8.20
2023-01-25T13:51:31.577Z,8.30
2023-01-25T13:54:00.597Z,8.23
2023-01-25T13:56:33.730Z,7.07
2023-01-25T13:59:02.114Z,8.70
2023-01-25T14:01:32.535Z,8.63
2023-01-25T14:04:03.129Z,8.27
2023-01-25T14:06:36.004Z,7.10
2023-01-25T14:09:07.671Z,9.57
2023-01-25T14:11:43.756Z,7.50
2023-01-25T14:14:20.824Z,7.40
2023-01-25T14:17:02.194Z,7.63
2023-01-25T14:19:31.325Z,6.10
2023-01-25T14:22:22.125Z,6.97
2023-01-25T14:25:08.437Z,7.83
2023-01-25T14:27:36.771Z,8.70
2023-01-25T14:30:06.116Z,7.10
2023-01-25T14:32:33.703Z,7.60
2023-01-25T14:35:42.288Z,7.80
2023-01-25T14:38:28.093Z,8.37
2023-01-25T14:40:58.227Z,6.53
2023-01-25T14:43:26.657Z,7.13
2023-01-25T14:45:54.232Z,7.20
2023-01-25T14:48:34.853Z,7.37
2023-01-25T14:51:13.670Z,7.10
2023-01-25T14:53:45.222Z,7.23
2023-01-25T14:56:35.965Z,9.10
2023-01-25T14:59:04.949Z,6.97
2023-01-25T15:01:37.956Z,7.00
2023-01-25T15:04:10.776Z,7.43
2023-01-25T15:06:46.658Z,7.40
2023-01-25T15:09:38.167Z,8.70
2023-01-25T15:12:27.747Z,9.53
2023-01-25T15:14:57.235Z,7.77
2023-01-25T15:17:39.636Z,7.43
2023-01-25T15:20:28.131Z,8.07
2023-01-25T15:22:56.901Z,8.10
2023-01-25T15:25:25.986Z,8.23
2023-01-25T15:27:54.604Z,7.43
2023-01-25T15:30:22.210Z,7.73
2023-01-25T15:32:50.334Z,9.40
2023-01-25T15:35:20.387Z,8.40
2023-01-25T15:37:49.591Z,8.17
2023-01-25T15:40:18.041Z,7.40
2023-01-25T15:42:46.790Z,9.70
2023-01-25T15:45:14.271Z,8.80
2023-01-25T15:47:41.796Z,6.83
2023-01-25T15:50:19.735Z,8.00
2023-01-25T15:52:48.283Z,6.93
2023-01-25T15:55:15.878Z,8.67
2023-01-25T15:57:46.731Z,8.03
2023-01-25T16:00:19.590Z,7.47
2023-01-25T16:02:47.275Z,7.00
2023-01-25T16:05:14.846Z,7.47
2023-01-25T16:07:44.643Z,7.70
2023-01-25T16:10:22.242Z,9.17
2023-01-25T16:12:50.177Z,7.80
2023-01-25T16:15:18.989Z,7.30
2023-01-25T16:17:46.519Z,8.70
2023-01-25T16:20:19.011Z,7.47
2023-01-25T16:22:47.065Z,8.00
2023-01-25T16:25:14.941Z,6.87
2023-01-25T16:27:42.428Z,8.87
2023-01-25T16:30:18.522Z,8.40
2023-01-25T16:32:49.242Z,8.13
2023-01-25T16:35:17.157Z,9.30
2023-01-25T16:37:44.668Z,8.20
2023-01-25T16:40:23.347Z,6.27
2023-01-25T16:42:51.132Z,10.43
2023-01-25T16:45:19.327Z,9.47
2023-01-25T16:47:48.410Z,7.17
2023-01-25T16:50:17.639Z,8.73
2023-01-25T16:52:45.976Z,7.53
2023-01-25T16:55:14.745Z,8.57
2023-01-25T16:57:43.645Z,7.70
2023-01-25T17:00:13.944Z,7.67
2023-01-25T17:02:53.450Z,6.83
2023-01-25T17:05:32.000Z,8.07
2023-01-25T17:07:59.889Z,8.77
2023-01-25T17:10:28.974Z,9.00
2023-01-25T17:12:56.926Z,8.23
2023-01-25T17:15:24.514Z,8.80
2023-01-25T17:17:52.086Z,8.27
2023-01-25T17:20:19.804Z,6.97
2023-01-25T17:22:51.009Z,7.60
2023-01-25T17:25:18.647Z,8.40
2023-01-25T17:27:46.240Z,7.40
2023-01-25T17:30:14.622Z,7.50
2023-01-25T17:32:42.316Z,7.50
2023-01-25T17:35:10.534Z,7.90
2023-01-25T17:37:40.907Z,7.77
2023-01-25T17:40:11.927Z,7.03
2023-01-25T17:42:39.597Z,7.93
2023-01-25T17:45:08.915Z,7.07
2023-01-25T17:47:36.607Z,9.23
2023-01-25T17:50:04.134Z,7.83
2023-01-25T17:52:31.582Z,7.77
2023-01-25T17:55:00.561Z,8.67
2023-01-25T17:57:31.421Z,8.07
2023-01-25T17:59:59.050Z,11.27
2023-01-25T18:02:26.593Z,8.37
2023-01-25T18:04:54.166Z,7.90
2023-01-25T18:07:21.685Z,7.90
2023-01-25T18:09:49.151Z,7.90
2023-01-25T18:12:20.532Z,6.80
2023-01-25T18:14:49.585Z,8.30
2023-01-25T18:17:17.141Z,8.80
2023-01-25T18:19:45.795Z,9.00
2023-01-25T18:22:14.595Z,7.50
2023-01-25T18:24:43.876Z,8.60
2023-01-25T18:27:20.672Z,9.47
2023-01-25T18:29:55.212Z,7.83
2023-01-25T18:32:22.765Z,8.63
2023-01-25T18:34:50.353Z,8.50
2023-01-25T18:37:20.741Z,7.90
2023-01-25T18:39:49.868Z,8.47
2023-01-25T18:42:18.204Z,8.10
2023-01-25T18:44:48.265Z,11.13
2023-01-25T18:47:18.474Z,10.70
2023-01-25T18:49:46.351Z,9.80
2023-01-25T18:52:14.418Z,11.63
2023-01-25T18:54:41.847Z,9.87
2023-01-25T18:57:10.548Z,8.90
2023-01-25T18:59:38.071Z,8.07
2023-01-25T19:02:05.982Z,7.60
2023-01-25T19:04:34.769Z,10.17
2023-01-25T19:07:02.255Z,9.03
2023-01-25T19:09:30.133Z,12.00
2023-01-25T19:11:57.996Z,11.57
2023-01-25T19:14:25.760Z,12.87
2023-01-25T19:16:53.291Z,8.67
2023-01-25T19:19:21.701Z,9.30
2023-01-25T19:21:50.515Z,8.77
2023-01-25T19:24:19.714Z,9.07
2023-01-25T19:26:47.846Z,10.17
2023-01-25T19:29:16.336Z,11.90
2023-01-25T19:31:43.910Z,11.90
2023-01-25T19:34:11.396Z,11.17
2023-01-25T19:36:43.633Z,12.23
2023-01-25T19:39:12.689Z,10.80
2023-01-25T19:41:40.165Z,9.03
2023-01-25T19:44:08.330Z,9.13
2023-01-25T19:46:37.317Z,8.70
2023-01-25T19:49:08.059Z,10.90
2023-01-25T19:51:37.333Z,8.83
2023-01-25T19:54:06.747Z,11.13
2023-01-25T19:56:37.778Z,9.40
2023-01-25T19:59:18.105Z,9.07
2023-01-25T20:01:46.156Z,10.37
2023-01-25T20:04:15.643Z,9.80
2023-01-25T20:06:43.482Z,9.70
2023-01-25T20:09:13.268Z,9.60
2023-01-25T20:11:42.185Z,9.77
2023-01-25T20:14:11.559Z,10.93
2023-01-25T20:16:39.043Z,9.40
2023-01-25T20:19:08.956Z,9.03
2023-01-25T20:21:39.538Z,9.70
2023-01-25T20:24:09.674Z,9.53
2023-01-25T20:26:39.617Z,11.40
2023-01-25T20:29:09.122Z,10.30
2023-01-25T20:31:38.619Z,11.57
2023-01-25T20:34:07.613Z,10.63
2023-01-25T20:36:36.086Z,11.10
2023-01-25T20:39:04.603Z,12.13
2023-01-25T20:41:32.145Z,11.20
2023-01-25T20:44:01.992Z,12.17
2023-01-25T20:46:34.151Z,10.93
2023-01-25T20:49:02.456Z,10.17
2023-01-25T20:51:30.299Z,9.97
2023-01-25T20:53:58.501Z,12.13
2023-01-25T20:56:26.240Z,11.70
2023-01-25T20:58:54.951Z,10.77
2023-01-25T21:01:24.524Z,13.30
2023-01-25T21:03:54.363Z,15.27
2023-01-25T21:06:21.817Z,10.53
2023-01-25T21:08:49.257Z,10.47
2023-01-25T21:11:17.661Z,10.30
2023-01-25T21:13:45.800Z,11.10
2023-01-25T21:16:18.062Z,10.70
2023-01-25T21:18:48.278Z,13.40
2023-01-25T21:21:19.395Z,12.30
2023-01-25T21:23:48.844Z,13.90
2023-01-25T21:26:18.943Z,10.03
2023-01-25T21:28:46.927Z,12.60
2023-01-25T21:31:16.976Z,11.47
2023-01-25T21:34:34.155Z,12.70
2023-01-25T21:37:03.327Z,11.30
2023-01-25T21:39:30.784Z,12.17
2023-01-25T21:41:58.655Z,14.40
2023-01-25T21:44:43.393Z,13.27
2023-01-25T21:50:15.629Z,12.40
2023-01-25T21:52:44.413Z,11.33
2023-01-25T21:55:12.312Z,11.57
2023-01-25T21:57:46.145Z,13.17
2023-01-25T22:00:15.854Z,11.63
2023-01-25T22:02:43.883Z,11.70
2023-01-25T22:05:11.658Z,13.60
2023-01-25T22:07:39.118Z,10.80
2023-01-25T22:10:09.331Z,13.03
2023-01-25T22:12:36.956Z,13.10
2023-01-25T22:15:05.378Z,13.97
2023-01-25T22:17:33.036Z,14.23
2023-01-25T22:20:00.512Z,13.60
2023-01-25T22:22:28.269Z,11.60
2023-01-25T22:24:56.708Z,12.40
2023-01-25T22:27:45.331Z,12.50
2023-01-25T22:30:16.360Z,12.33
2023-01-25T22:32:44.377Z,12.50
2023-01-25T22:35:12.093Z,14.20
2023-01-25T22:37:39.972Z,13.53
2023-01-25T22:40:09.322Z,13.00
2023-01-25T22:42:38.933Z,11.87
2023-01-25T22:45:07.968Z,12.57
2023-01-25T22:47:35.845Z,14.90
2023-01-25T22:50:03.353Z,12.20
2023-01-25T22:52:33.681Z,17.30
2023-01-25T22:55:01.262Z,14.17
2023-01-25T22:57:29.395Z,15.30
2023-01-25T22:59:58.651Z,14.00
2023-01-25T23:02:26.512Z,13.03
2023-01-25T23:04:54.649Z,14.10
2023-01-25T23:07:22.519Z,14.10
2023-01-25T23:09:51.650Z,16.80
2023-01-25T23:12:19.679Z,18.53
2023-01-25T23:14:52.770Z,13.20
2023-01-25T23:17:42.477Z,14.37
2023-01-25T23:20:12.606Z,17.07
2023-01-25T23:22:40.565Z,15.33
2023-01-25T23:25:09.964Z,17.57
2023-01-25T23:27:38.341Z,17.30
2023-01-25T23:30:09.374Z,17.90
2023-01-25T23:32:49.378Z,16.80
2023-01-25T23:35:18.687Z,15.93
2023-01-25T23:37:47.127Z,18.47
2023-01-25T23:40:16.273Z,20.27
2023-01-25T23:42:45.193Z,16.83
2023-01-25T23:45:13.089Z,17.70
2023-01-25T23:47:42.003Z,16.43
2023-01-25T23:50:14.586Z,16.50
2023-01-25T23:52:42.120Z,15.90
2023-01-25T23:55:10.954Z,15.73
2023-01-25T23:57:38.443Z,15.37
